createdAt,value
2018-02-08T00:00:42.739Z,14.80
2018-02-08T00:01:42.746Z,14.30
2018-02-08T00:02:42.741Z,15.50
2018-02-08T00:03:42.742Z,12.50
2018-02-08T00:04:42.746Z,13.10
2018-02-08T00:05:42.750Z,13.50
2018-02-08T00:06:42.748Z,11.40
2018-02-08T00:07:42.752Z,11.30
2018-02-08T00:08:42.754Z,12.70
2018-02-08T00:09:42.755Z,12.70
2018-02-08T00:10:42.755Z,12.00
2018-02-08T00:11:42.757Z,12.90
2018-02-08T00:12:42.754Z,13.10
2018-02-08T00:13:42.756Z,12.60
2018-02-08T00:14:42.759Z,11.10
2018-02-08T00:15:42.761Z,9.80
2018-02-08T00:16:42.759Z,9.10
2018-02-08T00:17:42.757Z,9.20
2018-02-08T00:18:42.759Z,9.20
2018-02-08T00:19:42.766Z,9.80
2018-02-08T00:20:42.767Z,9.70
2018-02-08T00:21:42.764Z,10.80
2018-02-08T00:22:42.769Z,9.20
2018-02-08T00:23:42.764Z,10.50
2018-02-08T00:24:42.770Z,10.40
2018-02-08T00:25:42.766Z,11.30
2018-02-08T00:26:42.771Z,11.60
2018-02-08T00:27:42.772Z,13.80
2018-02-08T00:28:42.780Z,12.40
2018-02-08T00:29:42.777Z,12.50
2018-02-08T00:30:42.772Z,12.50
2018-02-08T00:31:42.778Z,12.70
2018-02-08T00:32:42.774Z,13.40
2018-02-08T00:33:42.775Z,13.10
2018-02-08T00:34:42.780Z,13.60
2018-02-08T00:35:42.783Z,13.60
2018-02-08T00:36:42.780Z,13.10
2018-02-08T00:37:42.779Z,13.20
2018-02-08T00:38:42.783Z,12.30
2018-02-08T00:39:42.786Z,14.00
2018-02-08T00:40:42.788Z,12.90
2018-02-08T00:41:42.790Z,13.30
2018-02-08T00:42:42.789Z,13.10
2018-02-08T00:43:42.788Z,12.70
2018-02-08T00:44:42.787Z,12.20
2018-02-08T00:45:42.788Z,12.00
2018-02-08T00:46:42.789Z,12.30
2018-02-08T00:47:42.796Z,12.70
2018-02-08T00:48:42.793Z,12.20
2018-02-08T00:49:42.803Z,12.60
2018-02-08T00:50:42.800Z,13.40
2018-02-08T00:51:42.801Z,12.50
2018-02-08T00:52:42.808Z,12.80
2018-02-08T00:53:42.802Z,12.00
2018-02-08T00:54:42.798Z,12.80
2018-02-08T00:55:42.800Z,11.70
2018-02-08T00:56:42.807Z,12.20
2018-02-08T00:57:42.809Z,12.70
2018-02-08T00:58:42.801Z,12.20
2018-02-08T00:59:42.805Z,13.50
2018-02-08T01:00:42.811Z,12.70
2018-02-08T01:01:42.814Z,12.60
2018-02-08T01:02:42.808Z,13.10
2018-02-08T01:03:42.809Z,12.30
2018-02-08T01:04:42.810Z,12.90
2018-02-08T01:05:42.819Z,12.70
2018-02-08T01:06:42.818Z,11.40
2018-02-08T01:07:42.820Z,11.30
2018-02-08T01:08:42.820Z,11.60
2018-02-08T01:09:42.817Z,11.40
2018-02-08T01:10:42.823Z,12.40
2018-02-08T01:11:42.820Z,12.60
2018-02-08T01:12:42.827Z,12.90
2018-02-08T01:13:42.823Z,12.60
2018-02-08T01:14:42.829Z,12.50
2018-02-08T01:15:42.828Z,12.00
2018-02-08T01:16:42.831Z,11.90
2018-02-08T01:17:42.834Z,12.80
2018-02-08T01:18:42.828Z,13.10
2018-02-08T01:19:42.830Z,12.50
2018-02-08T01:20:42.836Z,12.50
2018-02-08T01:21:42.840Z,12.30
2018-02-08T01:22:42.840Z,13.00
2018-02-08T01:23:42.839Z,12.20
2018-02-08T01:24:42.842Z,12.30
2018-02-08T01:25:42.838Z,13.00
2018-02-08T01:26:42.845Z,12.50
2018-02-08T01:27:42.845Z,12.10
2018-02-08T01:28:42.842Z,12.50
2018-02-08T01:29:42.843Z,12.50
2018-02-08T01:30:42.843Z,12.50
2018-02-08T01:31:42.850Z,11.10
2018-02-08T01:32:42.846Z,10.20
2018-02-08T01:33:42.855Z,10.80
2018-02-08T01:34:42.855Z,11.60
2018-02-08T01:35:42.861Z,11.20
2018-02-08T01:36:42.860Z,11.00
2018-02-08T01:37:42.857Z,11.80
2018-02-08T01:38:42.860Z,11.00
2018-02-08T01:39:42.860Z,11.70
2018-02-08T01:40:42.855Z,11.10
2018-02-08T01:41:42.858Z,12.10
2018-02-08T01:42:42.865Z,12.40
2018-02-08T01:43:42.865Z,11.90
2018-02-08T01:44:42.860Z,12.00
2018-02-08T01:45:42.869Z,11.40
2018-02-08T01:46:42.868Z,12.00
2018-02-08T01:47:42.864Z,12.10
2018-02-08T01:48:42.871Z,11.40
2018-02-08T01:49:42.872Z,11.60
2018-02-08T01:50:42.875Z,10.90
2018-02-08T01:51:42.874Z,10.80
2018-02-08T01:52:42.879Z,10.60
2018-02-08T01:53:42.872Z,11.20
2018-02-08T01:54:42.872Z,10.70
2018-02-08T01:55:42.876Z,9.90
2018-02-08T01:56:42.881Z,9.90
2018-02-08T01:57:42.890Z,11.30
2018-02-08T01:58:42.878Z,11.40
2018-02-08T01:59:42.886Z,11.20
2018-02-08T02:00:42.886Z,11.60
2018-02-08T02:01:42.882Z,11.70
2018-02-08T02:02:42.892Z,11.20
2018-02-08T02:03:42.892Z,11.70
2018-02-08T02:04:42.886Z,11.10
2018-02-08T02:05:42.889Z,10.90
2018-02-08T02:06:42.887Z,11.70
2018-02-08T02:07:42.890Z,11.80
2018-02-08T02:08:42.897Z,11.70
2018-02-08T02:09:42.898Z,13.40
2018-02-08T02:10:42.893Z,13.20
2018-02-08T02:11:42.895Z,11.70
2018-02-08T02:12:42.901Z,12.10
2018-02-08T02:13:42.896Z,13.00
2018-02-08T02:14:42.904Z,12.40
2018-02-08T02:15:42.901Z,12.70
2018-02-08T02:16:42.903Z,12.60
2018-02-08T02:17:42.909Z,12.60
2018-02-08T02:18:42.920Z,12.10
2018-02-08T02:19:42.911Z,10.60
2018-02-08T02:20:42.913Z,10.80
2018-02-08T02:21:42.913Z,11.80
2018-02-08T02:22:42.912Z,11.00
2018-02-08T02:23:42.911Z,10.70
2018-02-08T02:24:42.915Z,10.90
2018-02-08T02:25:42.919Z,10.50
2018-02-08T02:26:42.916Z,9.80
2018-02-08T02:27:42.921Z,10.80
2018-02-08T02:28:42.919Z,10.70
2018-02-08T02:29:42.920Z,11.00
2018-02-08T02:30:42.926Z,11.70
2018-02-08T02:31:42.927Z,10.90
2018-02-08T02:32:42.925Z,11.20
2018-02-08T02:33:42.931Z,11.00
2018-02-08T02:34:42.927Z,11.40
2018-02-08T02:35:42.933Z,10.90
2018-02-08T02:36:42.932Z,11.70
2018-02-08T02:37:42.938Z,10.90
2018-02-08T02:38:42.938Z,9.80
2018-02-08T02:39:42.933Z,10.90
2018-02-08T02:40:42.936Z,10.20
2018-02-08T02:41:42.944Z,12.20
2018-02-08T02:42:42.938Z,11.90
2018-02-08T02:43:42.944Z,13.00
2018-02-08T02:44:42.950Z,11.90
2018-02-08T02:45:42.942Z,11.50
2018-02-08T02:46:42.949Z,11.20
2018-02-08T02:47:42.945Z,12.20
2018-02-08T02:48:42.947Z,12.20
2018-02-08T02:49:42.953Z,11.90
2018-02-08T02:50:42.953Z,12.50
2018-02-08T02:51:42.955Z,12.30
2018-02-08T02:52:42.960Z,13.40
2018-02-08T02:53:42.953Z,13.90
2018-02-08T02:54:42.960Z,10.80
2018-02-08T02:55:42.960Z,10.70
2018-02-08T02:56:42.961Z,12.90
2018-02-08T02:57:42.958Z,11.40
2018-02-08T02:58:42.959Z,11.20
2018-02-08T02:59:42.966Z,11.40
2018-02-08T03:00:42.968Z,11.40
2018-02-08T03:01:42.970Z,10.70
2018-02-08T03:02:42.963Z,9.40
2018-02-08T03:03:42.964Z,9.10
2018-02-08T03:04:42.971Z,9.20
2018-02-08T03:05:42.972Z,9.60
2018-02-08T03:06:42.972Z,9.00
2018-02-08T03:07:42.967Z,7.80
2018-02-08T03:08:42.969Z,8.50
2018-02-08T03:09:42.975Z,7.90
2018-02-08T03:10:43.301Z,7.30
2018-02-08T03:11:42.973Z,6.70
2018-02-08T03:12:42.979Z,7.20
2018-02-08T03:13:42.975Z,7.70
2018-02-08T03:14:42.983Z,7.80
2018-02-08T03:15:42.993Z,8.70
2018-02-08T03:16:42.977Z,7.20
2018-02-08T03:17:42.984Z,8.00
2018-02-08T03:18:42.979Z,9.20
2018-02-08T03:19:42.981Z,8.40
2018-02-08T03:20:42.982Z,8.70
2018-02-08T03:21:42.989Z,8.90
2018-02-08T03:22:42.989Z,8.90
2018-02-08T03:23:42.985Z,9.40
2018-02-08T03:24:42.986Z,10.00
2018-02-08T03:25:42.988Z,10.50
2018-02-08T03:26:42.992Z,9.50
2018-02-08T03:27:42.995Z,10.10
2018-02-08T03:28:42.990Z,9.20
2018-02-08T03:29:42.989Z,10.50
2018-02-08T03:30:42.993Z,10.00
2018-02-08T03:31:42.998Z,9.00
2018-02-08T03:32:42.996Z,10.80
2018-02-08T03:33:43.001Z,11.80
2018-02-08T03:34:42.996Z,11.30
2018-02-08T03:35:43.002Z,10.90
2018-02-08T03:36:42.999Z,10.50
2018-02-08T03:37:43.000Z,10.50
2018-02-08T03:38:42.999Z,10.70
2018-02-08T03:39:43.008Z,11.00
2018-02-08T03:40:43.010Z,10.20
2018-02-08T03:41:43.010Z,9.90
2018-02-08T03:42:43.005Z,8.80
2018-02-08T03:43:43.012Z,9.70
2018-02-08T03:44:43.013Z,9.40
2018-02-08T03:45:43.012Z,9.50
2018-02-08T03:46:43.010Z,9.50
2018-02-08T03:47:43.013Z,9.60
2018-02-08T03:48:43.018Z,10.80
2018-02-08T03:49:43.019Z,11.10
2018-02-08T03:50:43.015Z,10.00
2018-02-08T03:51:43.017Z,11.00
2018-02-08T03:52:43.018Z,10.50
2018-02-08T03:53:43.025Z,11.60
2018-02-08T03:54:43.027Z,12.40
2018-02-08T03:55:43.028Z,12.80
2018-02-08T03:56:43.022Z,12.20
2018-02-08T03:57:43.025Z,11.30
2018-02-08T03:58:43.030Z,11.20
2018-02-08T03:59:43.036Z,11.70
2018-02-08T04:00:43.027Z,11.80
2018-02-08T04:01:43.035Z,11.30
2018-02-08T04:02:43.039Z,12.10
2018-02-08T04:03:43.037Z,12.30
2018-02-08T04:04:43.039Z,11.10
2018-02-08T04:05:43.033Z,9.70
2018-02-08T04:06:43.041Z,9.20
2018-02-08T04:07:43.039Z,9.00
2018-02-08T04:08:43.037Z,10.10
2018-02-08T04:09:43.043Z,8.80
2018-02-08T04:10:43.039Z,9.20
2018-02-08T04:11:43.040Z,10.50
2018-02-08T04:12:43.048Z,9.30
2018-02-08T04:13:43.048Z,9.90
2018-02-08T04:14:43.050Z,8.70
2018-02-08T04:15:43.051Z,10.10
2018-02-08T04:16:43.046Z,12.50
2018-02-08T04:17:43.049Z,13.10
2018-02-08T04:18:43.053Z,12.80
2018-02-08T04:19:43.051Z,14.00
2018-02-08T04:20:43.054Z,13.40
2018-02-08T04:21:43.053Z,14.60
2018-02-08T04:22:43.053Z,14.20
2018-02-08T04:23:43.053Z,12.00
2018-02-08T04:24:43.055Z,13.30
2018-02-08T04:25:43.055Z,12.60
2018-02-08T04:26:43.061Z,13.40
2018-02-08T04:27:43.057Z,12.10
2018-02-08T04:28:43.081Z,12.00
2018-02-08T04:29:43.061Z,10.70
2018-02-08T04:30:43.065Z,10.80
2018-02-08T04:31:43.067Z,10.30
2018-02-08T04:32:43.063Z,9.90
2018-02-08T04:33:43.067Z,9.30
2018-02-08T04:34:43.070Z,9.90
2018-02-08T04:35:43.075Z,9.40
2018-02-08T04:36:43.073Z,10.40
2018-02-08T04:37:43.069Z,10.80
2018-02-08T04:38:43.069Z,10.00
2018-02-08T04:39:43.072Z,9.20
2018-02-08T04:40:43.078Z,8.20
2018-02-08T04:41:43.074Z,8.50
2018-02-08T04:42:43.080Z,10.20
2018-02-08T04:43:43.075Z,11.30
2018-02-08T04:44:43.077Z,16.70
2018-02-08T04:45:43.078Z,23.70
2018-02-08T04:46:43.083Z,20.70
2018-02-08T04:47:43.086Z,14.40
2018-02-08T04:48:43.080Z,13.20
2018-02-08T04:49:43.088Z,15.40
2018-02-08T04:50:43.088Z,14.80
2018-02-08T04:51:43.084Z,13.40
2018-02-08T04:52:43.088Z,14.70
2018-02-08T04:53:43.096Z,13.30
2018-02-08T04:54:43.088Z,13.20
2018-02-08T04:55:43.090Z,13.20
2018-02-08T04:56:43.096Z,13.40
2018-02-08T04:57:43.097Z,12.60
2018-02-08T04:58:43.092Z,13.10
2018-02-08T04:59:43.092Z,12.20
2018-02-08T05:00:43.099Z,11.80
2018-02-08T05:01:43.108Z,12.20
2018-02-08T05:02:43.103Z,12.70
2018-02-08T05:03:43.103Z,14.20
2018-02-08T05:04:43.106Z,14.10
2018-02-08T05:05:43.101Z,12.90
2018-02-08T05:06:43.100Z,11.20
2018-02-08T05:07:43.108Z,11.30
2018-02-08T05:08:43.103Z,12.40
2018-02-08T05:09:43.104Z,11.60
2018-02-08T05:10:43.104Z,11.50
2018-02-08T05:11:43.110Z,11.70
2018-02-08T05:12:43.108Z,14.50
2018-02-08T05:13:43.116Z,15.20
2018-02-08T05:14:43.114Z,16.30
2018-02-08T05:15:43.111Z,15.60
2018-02-08T05:16:43.128Z,13.60
2018-02-08T05:17:43.121Z,12.30
2018-02-08T05:18:43.119Z,11.30
2018-02-08T05:19:43.120Z,11.60
2018-02-08T05:20:43.116Z,11.70
2018-02-08T05:21:43.118Z,7.70
2018-02-08T05:22:43.124Z,6.80
2018-02-08T05:23:43.119Z,7.30
2018-02-08T05:24:43.125Z,7.20
2018-02-08T05:25:43.126Z,7.50
2018-02-08T05:26:43.127Z,7.50
2018-02-08T05:27:43.125Z,8.10
2018-02-08T05:28:43.130Z,8.10
2018-02-08T05:29:43.127Z,8.40
2018-02-08T05:30:43.132Z,8.00
2018-02-08T05:31:43.136Z,8.10
2018-02-08T05:32:43.128Z,7.80
2018-02-08T05:33:44.193Z,7.40
2018-02-08T05:34:43.130Z,8.10
2018-02-08T05:35:44.194Z,9.50
2018-02-08T05:36:43.143Z,9.50
2018-02-08T05:37:43.140Z,10.60
2018-02-08T05:38:43.135Z,10.00
2018-02-08T05:39:43.140Z,10.30
2018-02-08T05:40:43.142Z,10.20
2018-02-08T05:41:43.138Z,10.10
2018-02-08T05:42:43.139Z,9.60
2018-02-08T05:43:43.145Z,8.70
2018-02-08T05:44:43.140Z,7.80
2018-02-08T05:45:43.147Z,7.70
2018-02-08T05:46:43.146Z,7.60
2018-02-08T05:47:43.149Z,7.80
2018-02-08T05:48:43.151Z,6.80
2018-02-08T05:49:43.146Z,7.00
2018-02-08T05:50:43.144Z,6.90
2018-02-08T05:51:43.152Z,7.70
2018-02-08T05:52:43.202Z,7.10
2018-02-08T05:53:43.157Z,7.90
2018-02-08T05:54:43.149Z,9.50
2018-02-08T05:55:43.151Z,8.70
2018-02-08T05:56:43.153Z,7.90
2018-02-08T05:57:43.155Z,7.50
2018-02-08T05:58:43.160Z,7.80
2018-02-08T05:59:43.160Z,6.70
2018-02-08T06:00:43.156Z,7.00
2018-02-08T06:01:43.157Z,6.90
2018-02-08T06:02:43.163Z,7.00
2018-02-08T06:03:43.165Z,7.60
2018-02-08T06:04:43.165Z,7.20
2018-02-08T06:05:43.164Z,7.20
2018-02-08T06:06:43.176Z,6.80
2018-02-08T06:07:43.163Z,6.40
2018-02-08T06:08:43.170Z,6.50
2018-02-08T06:09:43.167Z,6.00
2018-02-08T06:10:43.171Z,6.40
2018-02-08T06:11:43.170Z,6.60
2018-02-08T06:12:43.179Z,6.40
2018-02-08T06:13:43.171Z,7.00
2018-02-08T06:14:43.176Z,6.10
2018-02-08T06:15:43.175Z,6.50
2018-02-08T06:16:43.178Z,6.30
2018-02-08T06:17:43.172Z,6.00
2018-02-08T06:18:43.178Z,7.30
2018-02-08T06:19:43.175Z,7.40
2018-02-08T06:20:43.181Z,6.60
2018-02-08T06:21:43.187Z,8.10
2018-02-08T06:22:43.182Z,8.30
2018-02-08T06:23:43.178Z,7.70
2018-02-08T06:24:43.186Z,7.60
2018-02-08T06:25:43.181Z,7.90
2018-02-08T06:26:43.190Z,7.70
2018-02-08T06:27:43.181Z,8.00
2018-02-08T06:28:43.189Z,8.30
2018-02-08T06:29:43.186Z,8.50
2018-02-08T06:30:43.186Z,8.20
2018-02-08T06:31:43.187Z,7.90
2018-02-08T06:32:43.193Z,7.70
2018-02-08T06:33:43.188Z,7.60
2018-02-08T06:34:43.188Z,7.50
2018-02-08T06:35:43.199Z,7.50
2018-02-08T06:36:43.197Z,7.50
2018-02-08T06:37:43.194Z,8.10
2018-02-08T06:38:43.198Z,8.30
2018-02-08T06:39:43.199Z,7.70
2018-02-08T06:40:43.197Z,8.10
2018-02-08T06:41:43.200Z,7.70
2018-02-08T06:42:43.198Z,7.70
2018-02-08T06:43:43.198Z,8.00
2018-02-08T06:44:43.206Z,7.70
2018-02-08T06:45:43.202Z,7.60
2018-02-08T06:46:43.235Z,7.60
2018-02-08T06:47:43.208Z,7.80
2018-02-08T06:48:43.208Z,8.00
2018-02-08T06:49:43.205Z,8.10
2018-02-08T06:50:43.209Z,8.00
2018-02-08T06:51:43.207Z,8.60
2018-02-08T06:52:43.214Z,8.00
2018-02-08T06:53:43.208Z,7.90
2018-02-08T06:54:43.208Z,8.50
2018-02-08T06:55:43.215Z,8.90
2018-02-08T06:56:43.218Z,9.50
2018-02-08T06:57:43.218Z,9.50
2018-02-08T06:58:43.214Z,10.10
2018-02-08T06:59:43.220Z,10.50
2018-02-08T07:00:43.222Z,10.40
2018-02-08T07:01:43.222Z,9.70
2018-02-08T07:02:43.222Z,8.80
2018-02-08T07:03:43.224Z,8.70
2018-02-08T07:04:43.220Z,8.60
2018-02-08T07:05:43.227Z,8.50
2018-02-08T07:06:43.227Z,9.30
2018-02-08T07:07:43.225Z,9.20
2018-02-08T07:08:43.229Z,8.20
2018-02-08T07:09:43.226Z,9.30
2018-02-08T07:10:43.232Z,9.00
2018-02-08T07:11:43.233Z,8.80
2018-02-08T07:12:43.233Z,8.30
2018-02-08T07:13:43.230Z,9.20
2018-02-08T07:14:43.236Z,9.50
2018-02-08T07:15:43.238Z,9.50
2018-02-08T07:16:43.238Z,9.70
2018-02-08T07:17:43.235Z,9.50
2018-02-08T07:18:43.243Z,9.30
2018-02-08T07:19:43.237Z,9.80
2018-02-08T07:20:43.236Z,9.90
2018-02-08T07:21:43.244Z,10.60
2018-02-08T07:22:43.245Z,9.10
2018-02-08T07:23:43.247Z,9.10
2018-02-08T07:24:43.242Z,8.80
2018-02-08T07:25:43.247Z,9.40
2018-02-08T07:26:43.252Z,9.50
2018-02-08T07:27:43.257Z,11.00
2018-02-08T07:28:43.249Z,12.00
2018-02-08T07:29:43.245Z,11.30
2018-02-08T07:30:43.256Z,10.20
2018-02-08T07:31:43.249Z,12.00
2018-02-08T07:32:43.256Z,11.20
2018-02-08T07:33:43.257Z,11.00
2018-02-08T07:34:43.253Z,11.20
2018-02-08T07:35:43.254Z,14.00
2018-02-08T07:36:43.260Z,11.90
2018-02-08T07:37:43.261Z,13.30
2018-02-08T07:38:43.260Z,13.80
2018-02-08T07:39:43.262Z,17.40
2018-02-08T07:40:43.263Z,18.90
2018-02-08T07:41:43.264Z,16.50
2018-02-08T07:42:43.259Z,12.70
2018-02-08T07:43:43.260Z,10.90
2018-02-08T07:44:43.260Z,11.20
2018-02-08T07:45:43.269Z,9.30
2018-02-08T07:46:43.268Z,10.00
2018-02-08T07:47:43.265Z,10.40
2018-02-08T07:48:43.264Z,8.90
2018-02-08T07:49:43.266Z,8.40
2018-02-08T07:50:43.271Z,8.80
2018-02-08T07:51:43.268Z,9.00
2018-02-08T07:52:43.271Z,9.00
2018-02-08T07:53:43.277Z,8.60
2018-02-08T07:54:43.271Z,9.10
2018-02-08T07:55:43.277Z,9.50
2018-02-08T07:56:43.280Z,10.00
2018-02-08T07:57:43.275Z,9.40
2018-02-08T07:58:43.279Z,10.20
2018-02-08T07:59:43.283Z,10.60
2018-02-08T08:00:43.277Z,10.30
2018-02-08T08:01:43.280Z,10.10
2018-02-08T08:02:43.282Z,9.50
2018-02-08T08:03:43.288Z,10.10
2018-02-08T08:04:43.289Z,10.50
2018-02-08T08:05:43.289Z,10.80
2018-02-08T08:06:43.285Z,9.90
2018-02-08T08:07:43.316Z,12.10
2018-02-08T08:08:43.287Z,12.00
2018-02-08T08:09:43.294Z,12.20
2018-02-08T08:10:43.294Z,11.60
2018-02-08T08:11:43.296Z,9.40
2018-02-08T08:12:43.297Z,9.60
2018-02-08T08:13:43.298Z,9.40
2018-02-08T08:14:43.300Z,9.80
2018-02-08T08:15:43.295Z,9.70
2018-02-08T08:16:43.296Z,10.00
2018-02-08T08:17:43.297Z,7.80
2018-02-08T08:18:43.303Z,8.20
2018-02-08T08:19:43.300Z,7.40
2018-02-08T08:20:43.304Z,8.00
2018-02-08T08:21:43.305Z,6.10
2018-02-08T08:22:43.308Z,6.60
2018-02-08T08:23:43.308Z,7.30
2018-02-08T08:24:43.302Z,6.70
2018-02-08T08:25:43.308Z,6.50
2018-02-08T08:26:43.310Z,6.10
2018-02-08T08:27:43.305Z,6.30
2018-02-08T08:28:43.307Z,5.60
2018-02-08T08:29:43.307Z,6.40
2018-02-08T08:30:43.309Z,6.30
2018-02-08T08:31:43.313Z,6.30
2018-02-08T08:32:43.311Z,6.40
2018-02-08T08:33:43.311Z,6.30
2018-02-08T08:34:43.315Z,6.30
2018-02-08T08:35:43.315Z,6.60
2018-02-08T08:36:43.314Z,6.00
2018-02-08T08:37:43.327Z,5.60
2018-02-08T08:38:43.314Z,5.80
2018-02-08T08:39:43.317Z,6.40
2018-02-08T08:40:43.319Z,6.20
2018-02-08T08:41:43.319Z,5.00
2018-02-08T08:42:43.319Z,5.80
2018-02-08T08:43:43.327Z,5.60
2018-02-08T08:44:43.322Z,5.40
2018-02-08T08:45:43.330Z,6.00
2018-02-08T08:46:43.328Z,6.70
2018-02-08T08:47:43.331Z,5.30
2018-02-08T08:48:43.329Z,5.20
2018-02-08T08:49:43.331Z,6.10
2018-02-08T08:50:43.337Z,6.10
2018-02-08T08:51:43.332Z,6.00
2018-02-08T08:52:43.336Z,6.10
2018-02-08T08:53:43.331Z,5.90
2018-02-08T08:54:43.331Z,5.60
2018-02-08T08:55:43.336Z,5.90
2018-02-08T08:56:43.332Z,7.00
2018-02-08T08:57:43.340Z,6.30
2018-02-08T08:58:43.334Z,7.10
2018-02-08T08:59:43.334Z,5.90
2018-02-08T09:00:43.342Z,5.90
2018-02-08T09:01:43.347Z,5.40
2018-02-08T09:02:43.338Z,5.80
2018-02-08T09:03:43.341Z,5.50
2018-02-08T09:04:43.344Z,5.90
2018-02-08T09:05:43.348Z,6.00
2018-02-08T09:06:43.342Z,6.00
2018-02-08T09:07:43.348Z,5.40
2018-02-08T09:08:43.351Z,5.50
2018-02-08T09:09:43.350Z,6.50
2018-02-08T09:10:43.351Z,6.30
2018-02-08T09:11:43.347Z,7.00
2018-02-08T09:12:43.348Z,7.00
2018-02-08T09:13:43.350Z,7.30
2018-02-08T09:14:43.355Z,6.70
2018-02-08T09:15:43.351Z,6.20
2018-02-08T09:16:43.359Z,7.60
2018-02-08T09:17:43.355Z,6.40
2018-02-08T09:18:43.359Z,5.50
2018-02-08T09:19:43.356Z,5.90
2018-02-08T09:20:43.357Z,5.60
2018-02-08T09:21:43.368Z,4.90
2018-02-08T09:22:43.370Z,4.70
2018-02-08T09:23:43.360Z,5.60
2018-02-08T09:24:43.369Z,5.80
2018-02-08T09:25:43.361Z,6.10
2018-02-08T09:26:43.368Z,7.20
2018-02-08T09:27:43.364Z,8.20
2018-02-08T09:28:43.372Z,8.00
2018-02-08T09:29:43.373Z,7.70
2018-02-08T09:30:43.373Z,6.80
2018-02-08T09:31:43.376Z,6.80
2018-02-08T09:32:43.377Z,7.00
2018-02-08T09:33:43.373Z,6.10
2018-02-08T09:34:43.379Z,6.00
2018-02-08T09:35:43.381Z,5.90
2018-02-08T09:36:43.375Z,7.40
2018-02-08T09:37:43.377Z,7.90
2018-02-08T09:38:43.383Z,9.40
2018-02-08T09:39:43.388Z,10.70
2018-02-08T09:40:43.389Z,9.20
2018-02-08T09:41:43.414Z,11.80
2018-02-08T09:42:43.387Z,13.50
2018-02-08T09:43:43.389Z,11.90
2018-02-08T09:44:43.385Z,8.70
2018-02-08T09:45:43.392Z,8.00
2018-02-08T09:46:43.392Z,8.20
2018-02-08T09:47:43.393Z,7.30
2018-02-08T09:48:43.401Z,7.30
2018-02-08T09:49:43.392Z,7.00
2018-02-08T09:50:43.397Z,6.30
2018-02-08T09:51:43.398Z,5.90
2018-02-08T09:52:43.395Z,5.40
2018-02-08T09:53:43.403Z,5.70
2018-02-08T09:54:43.398Z,6.10
2018-02-08T09:55:43.398Z,5.80
2018-02-08T09:56:43.407Z,5.20
2018-02-08T09:57:43.403Z,6.00
2018-02-08T09:58:43.409Z,5.90
2018-02-08T09:59:43.404Z,7.10
2018-02-08T10:00:43.414Z,5.90
2018-02-08T10:01:43.413Z,5.50
2018-02-08T10:02:43.416Z,5.90
2018-02-08T10:03:43.416Z,5.30
2018-02-08T10:04:43.419Z,4.90
2018-02-08T10:05:43.421Z,5.50
2018-02-08T10:06:43.416Z,5.90
2018-02-08T10:07:43.424Z,6.20
2018-02-08T10:08:43.420Z,5.80
2018-02-08T10:09:43.422Z,5.80
2018-02-08T10:10:43.429Z,5.80
2018-02-08T10:11:43.424Z,5.60
2018-02-08T10:12:43.431Z,5.40
2018-02-08T10:13:43.430Z,4.90
2018-02-08T10:14:43.434Z,5.30
2018-02-08T10:15:43.439Z,5.80
2018-02-08T10:16:43.438Z,5.40
2018-02-08T10:17:43.439Z,5.10
2018-02-08T10:18:43.439Z,5.70
2018-02-08T10:19:43.440Z,5.00
2018-02-08T10:20:43.440Z,6.50
2018-02-08T10:21:43.448Z,6.80
2018-02-08T10:22:43.454Z,6.60
2018-02-08T10:23:43.455Z,6.30
2018-02-08T10:24:43.453Z,7.40
2018-02-08T10:25:43.455Z,8.00
2018-02-08T10:26:43.457Z,8.50
2018-02-08T10:27:43.458Z,9.40
2018-02-08T10:28:43.460Z,9.40
2018-02-08T10:29:43.463Z,9.80
2018-02-08T10:30:43.463Z,9.20
2018-02-08T10:31:43.466Z,8.80
2018-02-08T10:32:43.463Z,7.80
2018-02-08T10:33:43.465Z,7.80
2018-02-08T10:34:43.475Z,8.60
2018-02-08T10:35:43.472Z,8.20
2018-02-08T10:36:43.476Z,7.20
2018-02-08T10:37:43.473Z,7.00
2018-02-08T10:38:43.479Z,7.20
2018-02-08T10:39:43.476Z,7.20
2018-02-08T10:40:43.482Z,5.50
2018-02-08T10:41:43.536Z,5.30
2018-02-08T10:42:43.482Z,5.80
2018-02-08T10:43:43.490Z,5.60
2018-02-08T10:44:43.484Z,6.00
2018-02-08T10:45:43.492Z,6.10
2018-02-08T10:46:43.488Z,6.60
2018-02-08T10:47:43.495Z,5.90
2018-02-08T10:48:43.499Z,6.80
2018-02-08T10:49:43.497Z,6.60
2018-02-08T10:50:43.496Z,6.00
2018-02-08T10:51:43.505Z,5.90
2018-02-08T10:52:43.503Z,5.80
2018-02-08T10:53:43.504Z,5.00
2018-02-08T10:54:43.503Z,6.10
2018-02-08T10:55:43.507Z,5.00
2018-02-08T10:56:43.517Z,5.10
2018-02-08T10:57:43.516Z,4.80
2018-02-08T10:58:43.513Z,4.90
2018-02-08T10:59:43.515Z,5.00
2018-02-08T11:00:43.525Z,5.90
2018-02-08T11:01:43.526Z,6.40
2018-02-08T11:02:43.527Z,6.40
2018-02-08T11:03:43.528Z,6.40
2018-02-08T11:04:43.530Z,6.50
2018-02-08T11:05:43.528Z,6.50
2018-02-08T11:06:43.531Z,6.20
2018-02-08T11:07:43.531Z,6.10
2018-02-08T11:08:43.537Z,7.10
2018-02-08T11:09:43.547Z,6.10
2018-02-08T11:10:43.539Z,6.20
2018-02-08T11:11:43.543Z,5.70
2018-02-08T11:12:43.551Z,5.80
2018-02-08T11:13:43.547Z,6.50
2018-02-08T11:14:43.549Z,6.20
2018-02-08T11:15:43.562Z,6.40
2018-02-08T11:16:43.560Z,6.90
2018-02-08T11:17:43.564Z,5.70
2018-02-08T11:18:43.559Z,5.60
2018-02-08T11:19:43.594Z,5.80
2018-02-08T11:20:43.566Z,5.90
2018-02-08T11:21:43.573Z,6.20
2018-02-08T11:22:43.571Z,5.30
2018-02-08T11:23:43.579Z,5.90
2018-02-08T11:24:43.580Z,5.60
2018-02-08T11:25:43.578Z,5.50
2018-02-08T11:26:43.579Z,6.30
2018-02-08T11:27:43.589Z,6.30
2018-02-08T11:28:43.585Z,6.20
2018-02-08T11:29:43.588Z,6.40
2018-02-08T11:30:43.594Z,6.30
2018-02-08T11:31:43.603Z,5.80
2018-02-08T11:32:43.595Z,6.10
2018-02-08T11:33:43.598Z,6.50
2018-02-08T11:34:43.605Z,6.90
2018-02-08T11:35:43.608Z,5.50
2018-02-08T11:36:43.606Z,6.20
2018-02-08T11:37:43.613Z,5.70
2018-02-08T11:38:43.610Z,6.30
2018-02-08T11:39:43.612Z,7.40
2018-02-08T11:40:43.616Z,6.00
2018-02-08T11:41:43.620Z,6.20
2018-02-08T11:42:43.616Z,5.90
2018-02-08T11:43:43.625Z,6.30
2018-02-08T11:44:43.625Z,6.10
2018-02-08T11:45:43.631Z,5.80
2018-02-08T11:46:43.627Z,6.70
2018-02-08T11:47:43.634Z,6.30
2018-02-08T11:48:43.632Z,6.10
2018-02-08T11:49:43.639Z,5.10
2018-02-08T11:50:43.642Z,5.60
2018-02-08T11:51:43.639Z,5.20
2018-02-08T11:52:43.641Z,5.60
2018-02-08T11:53:43.646Z,5.80
2018-02-08T11:54:43.646Z,7.30
2018-02-08T11:55:43.648Z,6.10
2018-02-08T11:56:43.655Z,6.00
2018-02-08T11:57:43.660Z,6.60
2018-02-08T11:58:43.655Z,5.70
2018-02-08T11:59:43.659Z,6.80
2018-02-08T12:00:43.667Z,6.10
2018-02-08T12:01:43.673Z,5.70
2018-02-08T12:02:43.670Z,5.70
2018-02-08T12:03:43.675Z,7.10
2018-02-08T12:04:43.678Z,6.70
2018-02-08T12:05:43.674Z,6.70
2018-02-08T12:06:43.676Z,7.90
2018-02-08T12:07:43.683Z,7.00
2018-02-08T12:08:43.683Z,6.80
2018-02-08T12:09:43.685Z,6.60
2018-02-08T12:10:43.687Z,6.80
2018-02-08T12:11:43.695Z,5.70
2018-02-08T12:12:43.701Z,5.60
2018-02-08T12:13:43.699Z,5.20
2018-02-08T12:14:43.704Z,6.60
2018-02-08T12:15:43.702Z,7.00
2018-02-08T12:16:43.704Z,7.00
2018-02-08T12:17:43.713Z,7.30
2018-02-08T12:18:43.717Z,8.90
2018-02-08T12:19:43.713Z,7.50
2018-02-08T12:20:43.723Z,7.20
2018-02-08T12:21:43.721Z,7.30
2018-02-08T12:22:43.729Z,7.30
2018-02-08T12:23:43.725Z,7.20
2018-02-08T12:24:43.735Z,7.70
2018-02-08T12:25:43.740Z,6.80
2018-02-08T12:26:43.739Z,7.40
2018-02-08T12:27:43.738Z,5.90
2018-02-08T12:28:43.747Z,6.10
2018-02-08T12:29:43.746Z,5.80
2018-02-08T12:30:43.755Z,6.30
2018-02-08T12:31:43.752Z,6.60
2018-02-08T12:32:43.755Z,7.30
2018-02-08T12:33:43.761Z,7.80
2018-02-08T12:34:43.759Z,7.40
2018-02-08T12:35:43.764Z,7.60
2018-02-08T12:36:43.778Z,8.70
2018-02-08T12:37:43.777Z,7.90
2018-02-08T12:38:43.780Z,6.80
2018-02-08T12:39:43.776Z,6.70
2018-02-08T12:40:43.783Z,6.70
2018-02-08T12:41:43.786Z,7.10
2018-02-08T12:42:43.792Z,7.80
2018-02-08T12:43:43.787Z,7.10
2018-02-08T12:44:43.791Z,7.40
2018-02-08T12:45:43.797Z,8.00
2018-02-08T12:46:43.797Z,7.10
2018-02-08T12:47:43.810Z,8.60
2018-02-08T12:48:43.807Z,9.80
2018-02-08T12:49:43.812Z,9.30
2018-02-08T12:50:43.809Z,8.30
2018-02-08T12:51:43.812Z,9.30
2018-02-08T12:52:43.823Z,9.60
2018-02-08T12:53:43.823Z,9.40
2018-02-08T12:54:43.820Z,8.50
2018-02-08T12:55:43.828Z,8.10
2018-02-08T12:56:43.832Z,7.80
2018-02-08T12:57:43.829Z,8.90
2018-02-08T12:58:43.837Z,7.60
2018-02-08T12:59:43.841Z,8.00
2018-02-08T13:00:43.840Z,7.80
2018-02-08T13:01:43.846Z,7.80
2018-02-08T13:02:43.854Z,7.70
2018-02-08T13:03:43.853Z,7.70
2018-02-08T13:04:43.857Z,8.60
2018-02-08T13:05:43.860Z,8.00
2018-02-08T13:06:43.863Z,7.40
2018-02-08T13:07:43.866Z,7.40
2018-02-08T13:08:43.870Z,7.70